Aikoumaru No.8 — JD3288 — position and weather

sailwx.info

Track history (hours):
 
Tides and Currents Weather Stations Pressure Air Temp Water Temp Dewpoint Dewpoint Depression Visibility Wind Speed Wind Dir Waves Ship Positions

Aikoumaru No.8

Last reported at 2017-Feb-24 01:11 UTC. Time now 2017-Feb-24 15:15 UTC.
Position N 35°00' E 139°26'.

Length 74 m; draft 4.8 m.

Type: Cargo ship. MMSI: 431003153.

Date/timePositionNaut miles runAvg speedWind from/ knotsBaromVisibWave heightAir tempDewpointWater temp
2017-Feb-24 01:11N 35°00' E 139°26'711.7
2017-Feb-24 00:33N 35°04' E 139°34'1211.6
2017-Feb-23 23:33N 35°11' E 139°45'9 9.4
2017-Feb-23 22:34N 35°20' E 139°41'0 0.0
2017-Feb-23 21:33N 35°20' E 139°41'0 0.0
2017-Feb-23 20:33N 35°20' E 139°41'0 0.0
2017-Feb-23 19:29N 35°20' E 139°41'0 0.0
2017-Feb-23 18:29N 35°20' E 139°41'0 0.0
2017-Feb-23 17:33N 35°20' E 139°41'0 0.0
2017-Feb-23 16:33N 35°20' E 139°41'0 0.0
2017-Feb-23 15:32N 35°20' E 139°41'0 0.0
2017-Feb-23 14:33N 35°20' E 139°41'0 0.0
2017-Feb-23 13:33N 35°20' E 139°41'0 0.0
2017-Feb-23 12:30N 35°20' E 139°41'0 0.0
2017-Feb-23 11:32N 35°20' E 139°41'0 0.0
2017-Feb-23 10:33N 35°20' E 139°41'0 0.0
2017-Feb-23 09:33N 35°20' E 139°41'0 0.1
2017-Feb-23 08:33N 35°20' E 139°41'0 0.0
2017-Feb-23 07:33N 35°20' E 139°41'0 0.1
2017-Feb-23 06:34N 35°20' E 139°41'0 0.0
2017-Feb-23 05:33N 35°20' E 139°41'0 0.0
2017-Feb-23 04:33N 35°20' E 139°41'0 0.0
2017-Feb-23 03:33N 35°20' E 139°41'0 0.0
2017-Feb-23 02:34N 35°20' E 139°41'0 0.0
2017-Feb-23 01:33N 35°20' E 139°41'0 0.0
2017-Feb-23 00:34N 35°20' E 139°41'0 0.0
2017-Feb-22 23:33N 35°20' E 139°41'0 0.0
2017-Feb-22 22:33N 35°20' E 139°41'0 0.0
2017-Feb-22 21:33N 35°20' E 139°41'0 0.0
2017-Feb-22 20:33N 35°20' E 139°41'0 0.0
2017-Feb-22 19:34N 35°20' E 139°41'0 0.0
2017-Feb-22 18:31N 35°20' E 139°41'0 0.1
2017-Feb-22 17:34N 35°20' E 139°41'0 0.0
2017-Feb-22 16:32N 35°20' E 139°41'0 0.0
2017-Feb-22 15:32N 35°20' E 139°41'0 0.0
2017-Feb-22 14:26N 35°20' E 139°41'0 0.0
2017-Feb-22 13:23N 35°20' E 139°41'0 0.0
2017-Feb-22 12:32N 35°20' E 139°41'0 0.1
2017-Feb-22 11:33N 35°20' E 139°41'8 7.9
2017-Feb-22 10:33N 35°14' E 139°47'1312.5
2017-Feb-22 09:33N 35°01' E 139°44'  
2017-Feb-18 07:08N 34°53' E 139°48'711.5
2017-Feb-18 06:31N 34°59' E 139°43'1212.9
2017-Feb-18 05:33N 35°11' E 139°46'1212.5
2017-Feb-18 04:33N 35°24' E 139°42'2 2.2
2017-Feb-18 03:33N 35°26' E 139°42'4 3.5
2017-Feb-18 02:33N 35°29' E 139°39'0 0.0
2017-Feb-18 01:33N 35°29' E 139°39'0 0.0
2017-Feb-18 00:33N 35°29' E 139°39'0 0.0
2017-Feb-17 23:33N 35°29' E 139°39'4 4.0
2017-Feb-17 22:33N 35°25' E 139°42'0 0.0
2017-Feb-17 21:31N 35°25' E 139°42'0 0.0
2017-Feb-17 20:31N 35°25' E 139°42'0 0.0
2017-Feb-17 19:31N 35°25' E 139°42'0 0.0
2017-Feb-17 18:31N 35°25' E 139°42'0 0.0
2017-Feb-17 17:31N 35°25' E 139°42'0 0.0
2017-Feb-17 16:31N 35°25' E 139°42'0 0.0
2017-Feb-17 15:31N 35°25' E 139°42'0 0.0
2017-Feb-17 14:31N 35°25' E 139°42'0 0.0
2017-Feb-17 13:31N 35°25' E 139°42'0 0.0
2017-Feb-17 12:31N 35°25' E 139°42'1 1.4
2017-Feb-17 11:33N 35°26' E 139°44'1210.2
2017-Feb-17 10:25N 35°37' E 139°50'2 0.4
2017-Feb-17 06:06N 35°38' E 139°48'1 1.4
2017-Feb-17 05:34N 35°37' E 139°49'3 2.9
2017-Feb-17 04:32N 35°35' E 139°51'0 0.0
2017-Feb-17 03:33N 35°35' E 139°51'9 9.0
2017-Feb-17 02:33N 35°27' E 139°46'3 3.3
2017-Feb-17 01:32N 35°26' E 139°42'0 0.1
2017-Feb-17 00:33N 35°25' E 139°42'1110.2
2017-Feb-16 23:31N 35°16' E 139°47'1111.2
2017-Feb-16 22:33N 35°05' E 139°43'35110.3
2017-Feb-15 12:30N 33°59' E 132°44'1111.9
2017-Feb-15 11:33N 33°52' E 132°33'  
Track history (hours):
 
Tides and Currents Weather Stations Pressure Air Temp Water Temp Dewpoint Dewpoint Depression Visibility Wind Speed Wind Dir Waves Ship Positions

Aikoumaru No.8

Last reported at 2017-Feb-24 01:11 UTC. Time now 2017-Feb-24 15:15 UTC.
Position N 35°00' E 139°26'.

Length 74 m; draft 4.8 m.

Type: Cargo ship. MMSI: 431003153.

Date/timePositionNaut miles runAvg speedWind from/ knotsBaromVisibWave heightAir tempDewpointWater temp
2017-Feb-24 01:11N 35°00' E 139°26'711.7
2017-Feb-24 00:33N 35°04' E 139°34'1211.6
2017-Feb-23 23:33N 35°11' E 139°45'9 9.4
2017-Feb-23 22:34N 35°20' E 139°41'0 0.0
2017-Feb-23 21:33N 35°20' E 139°41'0 0.0
2017-Feb-23 20:33N 35°20' E 139°41'0 0.0
2017-Feb-23 19:29N 35°20' E 139°41'0 0.0
2017-Feb-23 18:29N 35°20' E 139°41'0 0.0
2017-Feb-23 17:33N 35°20' E 139°41'0 0.0
2017-Feb-23 16:33N 35°20' E 139°41'0 0.0
2017-Feb-23 15:32N 35°20' E 139°41'0 0.0
2017-Feb-23 14:33N 35°20' E 139°41'0 0.0
2017-Feb-23 13:33N 35°20' E 139°41'0 0.0
2017-Feb-23 12:30N 35°20' E 139°41'0 0.0
2017-Feb-23 11:32N 35°20' E 139°41'0 0.0
2017-Feb-23 10:33N 35°20' E 139°41'0 0.0
2017-Feb-23 09:33N 35°20' E 139°41'0 0.1
2017-Feb-23 08:33N 35°20' E 139°41'0 0.0
2017-Feb-23 07:33N 35°20' E 139°41'0 0.1
2017-Feb-23 06:34N 35°20' E 139°41'0 0.0
2017-Feb-23 05:33N 35°20' E 139°41'0 0.0
2017-Feb-23 04:33N 35°20' E 139°41'0 0.0
2017-Feb-23 03:33N 35°20' E 139°41'0 0.0
2017-Feb-23 02:34N 35°20' E 139°41'0 0.0
2017-Feb-23 01:33N 35°20' E 139°41'0 0.0
2017-Feb-23 00:34N 35°20' E 139°41'0 0.0
2017-Feb-22 23:33N 35°20' E 139°41'0 0.0
2017-Feb-22 22:33N 35°20' E 139°41'0 0.0
2017-Feb-22 21:33N 35°20' E 139°41'0 0.0
2017-Feb-22 20:33N 35°20' E 139°41'0 0.0
2017-Feb-22 19:34N 35°20' E 139°41'0 0.0
2017-Feb-22 18:31N 35°20' E 139°41'0 0.1
2017-Feb-22 17:34N 35°20' E 139°41'0 0.0
2017-Feb-22 16:32N 35°20' E 139°41'0 0.0
2017-Feb-22 15:32N 35°20' E 139°41'0 0.0
2017-Feb-22 14:26N 35°20' E 139°41'0 0.0
2017-Feb-22 13:23N 35°20' E 139°41'0 0.0
2017-Feb-22 12:32N 35°20' E 139°41'0 0.1
2017-Feb-22 11:33N 35°20' E 139°41'8 7.9
2017-Feb-22 10:33N 35°14' E 139°47'1312.5
2017-Feb-22 09:33N 35°01' E 139°44'  
2017-Feb-18 07:08N 34°53' E 139°48'711.5
2017-Feb-18 06:31N 34°59' E 139°43'1212.9
2017-Feb-18 05:33N 35°11' E 139°46'1212.5
2017-Feb-18 04:33N 35°24' E 139°42'2 2.2
2017-Feb-18 03:33N 35°26' E 139°42'4 3.5
2017-Feb-18 02:33N 35°29' E 139°39'0 0.0
2017-Feb-18 01:33N 35°29' E 139°39'0 0.0
2017-Feb-18 00:33N 35°29' E 139°39'0 0.0
2017-Feb-17 23:33N 35°29' E 139°39'4 4.0
2017-Feb-17 22:33N 35°25' E 139°42'0 0.0
2017-Feb-17 21:31N 35°25' E 139°42'0 0.0
2017-Feb-17 20:31N 35°25' E 139°42'0 0.0
2017-Feb-17 19:31N 35°25' E 139°42'0 0.0
2017-Feb-17 18:31N 35°25' E 139°42'0 0.0
2017-Feb-17 17:31N 35°25' E 139°42'0 0.0
2017-Feb-17 16:31N 35°25' E 139°42'0 0.0
2017-Feb-17 15:31N 35°25' E 139°42'0 0.0
2017-Feb-17 14:31N 35°25' E 139°42'0 0.0
2017-Feb-17 13:31N 35°25' E 139°42'0 0.0
2017-Feb-17 12:31N 35°25' E 139°42'1 1.4
2017-Feb-17 11:33N 35°26' E 139°44'1210.2
2017-Feb-17 10:25N 35°37' E 139°50'2 0.4
2017-Feb-17 06:06N 35°38' E 139°48'1 1.4
2017-Feb-17 05:34N 35°37' E 139°49'3 2.9
2017-Feb-17 04:32N 35°35' E 139°51'0 0.0
2017-Feb-17 03:33N 35°35' E 139°51'9 9.0
2017-Feb-17 02:33N 35°27' E 139°46'3 3.3
2017-Feb-17 01:32N 35°26' E 139°42'0 0.1
2017-Feb-17 00:33N 35°25' E 139°42'1110.2
2017-Feb-16 23:31N 35°16' E 139°47'1111.2
2017-Feb-16 22:33N 35°05' E 139°43'35110.3
2017-Feb-15 12:30N 33°59' E 132°44'1111.9
2017-Feb-15 11:33N 33°52' E 132°33'  

Dump ship's entire track history